This is the latest recevied weather packets stored in our database for station/object KF4ZNO-13. If no packets are shown the sender has not sent any weather packets the latest 10 day(s).
| Time | Temp. | Humidity | Pressure | Rain* | Wind** | Luminosity | Snow |
|---|---|---|---|---|---|---|---|
| 1777435818 | 21.11° C | 89% | 1019 hPa | 0 mm | - | - | - |
| 1777427420 | 22.22° C | 86% | 1018.7 hPa | 0 mm | - | - | - |
| 1777422640 | 23.33° C | 82% | 1019.4 hPa | 0 mm | - | - | - |
| 1777422020 | 23.33° C | 81% | 1019.3 hPa | 0 mm | - | - | - |
| 1777420820 | 23.89° C | 80% | 1019.3 hPa | 0 mm | - | - | - |
| 1777420220 | 24.44° C | 79% | 1019.5 hPa | 0 mm | - | - | - |
| 1777408819 | 26.11° C | 69% | 1020.2 hPa | 0 mm | - | - | - |
| 1777405819 | 26.67° C | 71% | 1020.6 hPa | 0 mm | - | - | - |
| 1777396839 | 27.78° C | 65% | 1021.8 hPa | 0 mm | - | - | - |
| 1777395019 | 28.33° C | 64% | 1022 hPa | 0 mm | - | - | - |
| 1777390819 | 26.67° C | 70% | 1022.1 hPa | 0 mm | - | - | - |
| 1777390219 | 26.67° C | 71% | 1022.1 hPa | 0 mm | - | - | - |
| 1777389019 | 26.67° C | 73% | 1022 hPa | 0 mm | - | - | - |
| 1777386019 | 24.44° C | 81% | 1021.7 hPa | 0 mm | - | - | - |
| 1777385419 | 23.89° C | 82% | 1021.8 hPa | 0 mm | - | - | - |
| 1777381219 | 20.56° C | 92% | 1021.6 hPa | 0 mm | - | - | - |
| 1777378219 | 18.89° C | 92% | 1021.4 hPa | 0 mm | - | - | - |
| 1777374019 | 18.33° C | 92% | 1020.7 hPa | 0 mm | - | - | - |
| 1777371018 | 18.33° C | 92% | 1020.6 hPa | 0 mm | - | - | - |
| 1777370419 | 17.78° C | 92% | 1020.3 hPa | 0 mm | - | - | - |
| 1777369819 | 18.33° C | 92% | 1020 hPa | 0 mm | - | - | - |
| 1777358420 | 18.89° C | 91% | 1019.7 hPa | 0 mm | - | - | - |
| 1777356620 | 18.89° C | 91% | 1019.7 hPa | 0 mm | - | - | - |
| 1777355421 | 18.89° C | 91% | 1019.6 hPa | 0 mm | - | - | - |
| 1777354839 | 18.89° C | 91% | 1019.6 hPa | 0 mm | - | - | - |
* Rain latest hour (hover to see other rain measurements)
** Current wind speed in m/s (hover to see current wind gust speed)